sensor_id;sensor_type;location;lat;lon;timestamp;P1;durP1;ratioP1;P2;durP2;ratioP2
32319;SDS011;19080;51.750;5.888;2023-07-29T00:01:42;7.10;;;6.50;;
32319;SDS011;19080;51.750;5.888;2023-07-29T00:04:08;7.43;;;6.22;;
32319;SDS011;19080;51.750;5.888;2023-07-29T00:06:35;8.27;;;6.57;;
32319;SDS011;19080;51.750;5.888;2023-07-29T00:09:03;7.65;;;6.95;;
32319;SDS011;19080;51.750;5.888;2023-07-29T00:11:29;6.93;;;6.22;;
32319;SDS011;19080;51.750;5.888;2023-07-29T00:13:56;7.97;;;7.18;;
32319;SDS011;19080;51.750;5.888;2023-07-29T00:16:23;9.82;;;6.57;;
32319;SDS011;19080;51.750;5.888;2023-07-29T00:18:51;9.00;;;7.40;;
32319;SDS011;19080;51.750;5.888;2023-07-29T00:21:18;7.50;;;6.13;;
32319;SDS011;19080;51.750;5.888;2023-07-29T00:23:45;7.47;;;6.72;;
32319;SDS011;19080;51.750;5.888;2023-07-29T00:26:11;7.97;;;7.18;;
32319;SDS011;19080;51.750;5.888;2023-07-29T00:28:38;8.32;;;7.53;;
32319;SDS011;19080;51.750;5.888;2023-07-29T00:31:05;9.35;;;7.07;;
32319;SDS011;19080;51.750;5.888;2023-07-29T00:33:33;7.72;;;7.03;;
32319;SDS011;19080;51.750;5.888;2023-07-29T00:36:00;8.07;;;7.32;;
32319;SDS011;19080;51.750;5.888;2023-07-29T00:38:29;8.98;;;7.78;;
32319;SDS011;19080;51.750;5.888;2023-07-29T00:41:00;10.60;;;9.60;;
32319;SDS011;19080;51.750;5.888;2023-07-29T00:43:28;8.93;;;8.13;;
32319;SDS011;19080;51.750;5.888;2023-07-29T00:45:55;8.70;;;7.82;;
32319;SDS011;19080;51.750;5.888;2023-07-29T00:48:24;8.68;;;7.63;;
32319;SDS011;19080;51.750;5.888;2023-07-29T00:50:51;9.02;;;8.15;;
32319;SDS011;19080;51.750;5.888;2023-07-29T00:53:18;8.90;;;8.00;;
32319;SDS011;19080;51.750;5.888;2023-07-29T00:55:45;12.55;;;9.40;;
32319;SDS011;19080;51.750;5.888;2023-07-29T00:58:12;11.48;;;8.65;;
32319;SDS011;19080;51.750;5.888;2023-07-29T01:00:38;9.55;;;8.48;;
32319;SDS011;19080;51.750;5.888;2023-07-29T01:03:06;9.82;;;8.82;;
32319;SDS011;19080;51.750;5.888;2023-07-29T01:06:21;7.53;;;6.90;;
32319;SDS011;19080;51.750;5.888;2023-07-29T01:08:28;10.68;;;9.40;;
32319;SDS011;19080;51.750;5.888;2023-07-29T01:13:52;8.27;;;7.47;;
32319;SDS011;19080;51.750;5.888;2023-07-29T01:16:26;9.57;;;8.07;;
32319;SDS011;19080;51.750;5.888;2023-07-29T01:19:04;8.85;;;8.05;;
32319;SDS011;19080;51.750;5.888;2023-07-29T01:21:35;9.77;;;8.82;;
32319;SDS011;19080;51.750;5.888;2023-07-29T01:24:04;9.52;;;8.57;;
32319;SDS011;19080;51.750;5.888;2023-07-29T01:26:31;9.80;;;7.55;;
32319;SDS011;19080;51.750;5.888;2023-07-29T01:28:58;8.85;;;7.75;;
32319;SDS011;19080;51.750;5.888;2023-07-29T01:31:32;9.30;;;8.15;;
32319;SDS011;19080;51.750;5.888;2023-07-29T01:34:13;11.40;;;9.07;;
32319;SDS011;19080;51.750;5.888;2023-07-29T01:36:46;8.98;;;8.18;;
32319;SDS011;19080;51.750;5.888;2023-07-29T01:39:15;10.07;;;8.63;;
32319;SDS011;19080;51.750;5.888;2023-07-29T01:41:44;10.70;;;9.60;;
32319;SDS011;19080;51.750;5.888;2023-07-29T01:44:11;10.25;;;9.05;;
32319;SDS011;19080;51.750;5.888;2023-07-29T01:46:40;8.90;;;8.13;;
32319;SDS011;19080;51.750;5.888;2023-07-29T01:49:06;9.80;;;8.80;;
32319;SDS011;19080;51.750;5.888;2023-07-29T01:51:33;9.45;;;8.65;;
32319;SDS011;19080;51.750;5.888;2023-07-29T01:54:00;9.43;;;8.50;;
32319;SDS011;19080;51.750;5.888;2023-07-29T01:56:28;10.63;;;9.38;;
32319;SDS011;19080;51.750;5.888;2023-07-29T01:58:55;10.10;;;8.77;;
32319;SDS011;19080;51.750;5.888;2023-07-29T02:01:24;9.73;;;8.82;;
32319;SDS011;19080;51.750;5.888;2023-07-29T02:03:51;10.38;;;9.20;;
32319;SDS011;19080;51.750;5.888;2023-07-29T02:06:22;10.05;;;8.68;;
32319;SDS011;19080;51.750;5.888;2023-07-29T02:08:49;10.38;;;9.13;;
32319;SDS011;19080;51.750;5.888;2023-07-29T02:11:15;10.23;;;8.20;;
32319;SDS011;19080;51.750;5.888;2023-07-29T02:13:42;11.20;;;9.18;;
32319;SDS011;19080;51.750;5.888;2023-07-29T02:16:09;9.77;;;8.77;;
32319;SDS011;19080;51.750;5.888;2023-07-29T02:18:35;9.45;;;8.10;;
32319;SDS011;19080;51.750;5.888;2023-07-29T02:21:02;8.52;;;7.72;;
32319;SDS011;19080;51.750;5.888;2023-07-29T02:23:29;10.38;;;8.75;;
32319;SDS011;19080;51.750;5.888;2023-07-29T02:25:56;9.13;;;8.23;;
32319;SDS011;19080;51.750;5.888;2023-07-29T02:28:23;9.40;;;8.40;;
32319;SDS011;19080;51.750;5.888;2023-07-29T02:30:54;9.27;;;8.43;;
32319;SDS011;19080;51.750;5.888;2023-07-29T02:33:36;8.55;;;7.68;;
32319;SDS011;19080;51.750;5.888;2023-07-29T02:36:02;8.25;;;7.47;;
32319;SDS011;19080;51.750;5.888;2023-07-29T02:38:29;11.18;;;7.65;;
32319;SDS011;19080;51.750;5.888;2023-07-29T02:40:56;9.80;;;8.82;;
32319;SDS011;19080;51.750;5.888;2023-07-29T02:43:23;11.02;;;9.88;;
32319;SDS011;19080;51.750;5.888;2023-07-29T02:45:49;12.75;;;11.02;;
32319;SDS011;19080;51.750;5.888;2023-07-29T02:48:16;11.20;;;9.13;;
32319;SDS011;19080;51.750;5.888;2023-07-29T02:50:43;11.15;;;9.05;;
32319;SDS011;19080;51.750;5.888;2023-07-29T02:53:10;11.35;;;8.50;;
32319;SDS011;19080;51.750;5.888;2023-07-29T02:55:40;9.60;;;8.18;;
32319;SDS011;19080;51.750;5.888;2023-07-29T02:58:07;8.90;;;7.28;;
32319;SDS011;19080;51.750;5.888;2023-07-29T03:00:34;10.48;;;7.88;;
32319;SDS011;19080;51.750;5.888;2023-07-29T03:03:02;10.10;;;7.45;;
32319;SDS011;19080;51.750;5.888;2023-07-29T03:05:29;8.40;;;7.47;;
32319;SDS011;19080;51.750;5.888;2023-07-29T03:07:57;8.20;;;7.05;;
32319;SDS011;19080;51.750;5.888;2023-07-29T03:10:24;8.10;;;6.20;;
32319;SDS011;19080;51.750;5.888;2023-07-29T03:12:53;7.18;;;6.45;;
32319;SDS011;19080;51.750;5.888;2023-07-29T03:15:24;6.60;;;5.75;;
32319;SDS011;19080;51.750;5.888;2023-07-29T03:17:52;6.90;;;6.20;;
32319;SDS011;19080;51.750;5.888;2023-07-29T03:20:19;7.88;;;5.82;;
32319;SDS011;19080;51.750;5.888;2023-07-29T03:22:46;6.85;;;6.07;;
32319;SDS011;19080;51.750;5.888;2023-07-29T03:25:14;5.97;;;5.43;;
32319;SDS011;19080;51.750;5.888;2023-07-29T03:27:41;6.38;;;5.57;;
32319;SDS011;19080;51.750;5.888;2023-07-29T03:30:08;7.05;;;5.82;;
32319;SDS011;19080;51.750;5.888;2023-07-29T03:32:37;6.60;;;4.80;;
32319;SDS011;19080;51.750;5.888;2023-07-29T03:35:07;5.57;;;5.03;;
32319;SDS011;19080;51.750;5.888;2023-07-29T03:37:34;6.28;;;5.55;;
32319;SDS011;19080;51.750;5.888;2023-07-29T03:40:01;9.02;;;5.78;;
32319;SDS011;19080;51.750;5.888;2023-07-29T03:42:30;5.90;;;4.97;;
32319;SDS011;19080;51.750;5.888;2023-07-29T03:44:57;5.90;;;4.85;;
32319;SDS011;19080;51.750;5.888;2023-07-29T03:47:24;5.07;;;4.57;;
32319;SDS011;19080;51.750;5.888;2023-07-29T03:49:52;5.07;;;4.57;;
32319;SDS011;19080;51.750;5.888;2023-07-29T03:52:21;5.05;;;4.18;;
32319;SDS011;19080;51.750;5.888;2023-07-29T03:54:48;6.03;;;5.25;;
32319;SDS011;19080;51.750;5.888;2023-07-29T03:57:14;6.25;;;4.50;;
32319;SDS011;19080;51.750;5.888;2023-07-29T03:59:41;5.95;;;4.57;;
32319;SDS011;19080;51.750;5.888;2023-07-29T04:02:08;5.38;;;4.10;;
32319;SDS011;19080;51.750;5.888;2023-07-29T04:04:34;6.97;;;4.88;;
32319;SDS011;19080;51.750;5.888;2023-07-29T04:07:01;5.57;;;4.50;;
32319;SDS011;19080;51.750;5.888;2023-07-29T04:09:28;4.05;;;3.65;;
32319;SDS011;19080;51.750;5.888;2023-07-29T04:11:55;5.47;;;4.50;;
32319;SDS011;19080;51.750;5.888;2023-07-29T04:14:21;6.25;;;4.30;;
32319;SDS011;19080;51.750;5.888;2023-07-29T04:16:48;6.50;;;4.07;;
32319;SDS011;19080;51.750;5.888;2023-07-29T04:19:15;4.97;;;4.47;;
32319;SDS011;19080;51.750;5.888;2023-07-29T04:21:42;5.80;;;5.15;;
32319;SDS011;19080;51.750;5.888;2023-07-29T04:24:10;6.43;;;5.22;;
32319;SDS011;19080;51.750;5.888;2023-07-29T04:26:38;5.15;;;4.30;;
32319;SDS011;19080;51.750;5.888;2023-07-29T04:29:05;6.72;;;4.68;;
32319;SDS011;19080;51.750;5.888;2023-07-29T04:31:32;4.63;;;3.75;;
32319;SDS011;19080;51.750;5.888;2023-07-29T04:33:59;4.95;;;4.45;;
32319;SDS011;19080;51.750;5.888;2023-07-29T04:36:25;5.35;;;4.10;;
32319;SDS011;19080;51.750;5.888;2023-07-29T04:38:52;6.07;;;4.35;;
32319;SDS011;19080;51.750;5.888;2023-07-29T04:41:19;5.35;;;4.15;;
32319;SDS011;19080;51.750;5.888;2023-07-29T04:43:45;7.70;;;4.97;;
32319;SDS011;19080;51.750;5.888;2023-07-29T04:46:12;8.45;;;5.65;;
32319;SDS011;19080;51.750;5.888;2023-07-29T04:48:39;5.93;;;5.32;;
32319;SDS011;19080;51.750;5.888;2023-07-29T04:51:06;7.18;;;5.63;;
32319;SDS011;19080;51.750;5.888;2023-07-29T04:53:33;7.68;;;5.70;;
32319;SDS011;19080;51.750;5.888;2023-07-29T04:56:01;6.75;;;6.10;;
32319;SDS011;19080;51.750;5.888;2023-07-29T04:58:28;6.78;;;5.85;;
32319;SDS011;19080;51.750;5.888;2023-07-29T05:00:57;6.55;;;5.88;;
32319;SDS011;19080;51.750;5.888;2023-07-29T05:03:24;6.25;;;5.65;;
32319;SDS011;19080;51.750;5.888;2023-07-29T05:05:50;7.10;;;6.15;;
32319;SDS011;19080;51.750;5.888;2023-07-29T05:08:19;7.00;;;6.30;;
32319;SDS011;19080;51.750;5.888;2023-07-29T05:10:49;7.47;;;6.45;;
32319;SDS011;19080;51.750;5.888;2023-07-29T05:13:17;6.50;;;5.78;;
32319;SDS011;19080;51.750;5.888;2023-07-29T05:15:44;6.65;;;5.20;;
32319;SDS011;19080;51.750;5.888;2023-07-29T05:18:11;7.25;;;6.50;;
32319;SDS011;19080;51.750;5.888;2023-07-29T05:20:38;6.13;;;5.47;;
32319;SDS011;19080;51.750;5.888;2023-07-29T05:23:04;6.30;;;5.70;;
32319;SDS011;19080;51.750;5.888;2023-07-29T05:25:31;7.45;;;5.57;;
32319;SDS011;19080;51.750;5.888;2023-07-29T05:28:01;8.52;;;6.45;;
32319;SDS011;19080;51.750;5.888;2023-07-29T05:30:29;10.57;;;6.45;;
32319;SDS011;19080;51.750;5.888;2023-07-29T05:33:00;7.88;;;5.82;;
32319;SDS011;19080;51.750;5.888;2023-07-29T05:35:27;8.25;;;5.28;;
32319;SDS011;19080;51.750;5.888;2023-07-29T05:37:54;6.53;;;5.57;;
32319;SDS011;19080;51.750;5.888;2023-07-29T05:40:21;7.70;;;5.75;;
32319;SDS011;19080;51.750;5.888;2023-07-29T05:42:47;6.18;;;5.30;;
32319;SDS011;19080;51.750;5.888;2023-07-29T05:45:14;7.40;;;4.97;;
32319;SDS011;19080;51.750;5.888;2023-07-29T05:47:41;7.57;;;5.30;;
32319;SDS011;19080;51.750;5.888;2023-07-29T05:50:08;5.97;;;5.38;;
32319;SDS011;19080;51.750;5.888;2023-07-29T05:52:35;5.57;;;4.90;;
32319;SDS011;19080;51.750;5.888;2023-07-29T05:55:02;7.25;;;5.18;;
32319;SDS011;19080;51.750;5.888;2023-07-29T05:57:31;6.38;;;5.10;;
32319;SDS011;19080;51.750;5.888;2023-07-29T05:59:57;6.15;;;5.25;;
32319;SDS011;19080;51.750;5.888;2023-07-29T06:02:25;5.50;;;4.90;;
32319;SDS011;19080;51.750;5.888;2023-07-29T06:04:52;10.75;;;4.78;;
32319;SDS011;19080;51.750;5.888;2023-07-29T06:07:19;6.43;;;5.35;;
32319;SDS011;19080;51.750;5.888;2023-07-29T06:09:45;6.63;;;4.80;;
32319;SDS011;19080;51.750;5.888;2023-07-29T06:12:12;5.13;;;4.63;;
32319;SDS011;19080;51.750;5.888;2023-07-29T06:14:39;5.65;;;4.50;;
32319;SDS011;19080;51.750;5.888;2023-07-29T06:17:09;6.60;;;4.47;;
32319;SDS011;19080;51.750;5.888;2023-07-29T06:19:38;5.40;;;4.57;;
32319;SDS011;19080;51.750;5.888;2023-07-29T06:22:04;6.72;;;4.82;;
32319;SDS011;19080;51.750;5.888;2023-07-29T06:24:32;7.13;;;4.80;;
32319;SDS011;19080;51.750;5.888;2023-07-29T06:26:59;7.72;;;5.35;;
32319;SDS011;19080;51.750;5.888;2023-07-29T06:29:25;6.40;;;4.80;;
32319;SDS011;19080;51.750;5.888;2023-07-29T06:31:52;6.05;;;3.85;;
32319;SDS011;19080;51.750;5.888;2023-07-29T06:34:19;4.47;;;4.07;;
32319;SDS011;19080;51.750;5.888;2023-07-29T06:36:47;5.70;;;4.28;;
32319;SDS011;19080;51.750;5.888;2023-07-29T06:39:14;4.22;;;3.80;;
32319;SDS011;19080;51.750;5.888;2023-07-29T06:41:40;6.80;;;4.82;;
32319;SDS011;19080;51.750;5.888;2023-07-29T06:44:07;5.13;;;4.03;;
32319;SDS011;19080;51.750;5.888;2023-07-29T06:46:34;3.88;;;3.47;;
32319;SDS011;19080;51.750;5.888;2023-07-29T06:49:01;5.20;;;3.88;;
32319;SDS011;19080;51.750;5.888;2023-07-29T06:51:28;7.72;;;3.97;;
32319;SDS011;19080;51.750;5.888;2023-07-29T06:53:58;5.20;;;3.97;;
32319;SDS011;19080;51.750;5.888;2023-07-29T06:56:26;6.40;;;3.70;;
32319;SDS011;19080;51.750;5.888;2023-07-29T06:58:52;5.57;;;3.78;;
32319;SDS011;19080;51.750;5.888;2023-07-29T07:04:11;5.75;;;3.30;;
32319;SDS011;19080;51.750;5.888;2023-07-29T07:06:38;4.50;;;3.45;;
32319;SDS011;19080;51.750;5.888;2023-07-29T07:09:04;5.38;;;3.70;;
32319;SDS011;19080;51.750;5.888;2023-07-29T07:11:31;4.03;;;3.30;;
32319;SDS011;19080;51.750;5.888;2023-07-29T07:13:59;4.40;;;3.60;;
32319;SDS011;19080;51.750;5.888;2023-07-29T07:16:26;4.03;;;3.63;;
32319;SDS011;19080;51.750;5.888;2023-07-29T07:18:56;6.75;;;3.60;;
32319;SDS011;19080;51.750;5.888;2023-07-29T07:21:23;4.63;;;3.53;;
32319;SDS011;19080;51.750;5.888;2023-07-29T07:23:50;7.00;;;4.00;;
32319;SDS011;19080;51.750;5.888;2023-07-29T07:26:17;4.10;;;3.70;;
32319;SDS011;19080;51.750;5.888;2023-07-29T07:28:43;4.82;;;3.42;;
32319;SDS011;19080;51.750;5.888;2023-07-29T07:31:10;8.70;;;4.63;;
32319;SDS011;19080;51.750;5.888;2023-07-29T07:33:38;6.10;;;4.30;;
32319;SDS011;19080;51.750;5.888;2023-07-29T07:36:05;3.83;;;3.53;;
32319;SDS011;19080;51.750;5.888;2023-07-29T07:38:31;5.82;;;4.40;;
32319;SDS011;19080;51.750;5.888;2023-07-29T07:40:58;6.75;;;4.43;;
32319;SDS011;19080;51.750;5.888;2023-07-29T07:43:25;5.10;;;4.53;;
32319;SDS011;19080;51.750;5.888;2023-07-29T07:45:57;6.22;;;3.63;;
32319;SDS011;19080;51.750;5.888;2023-07-29T07:48:25;5.10;;;3.40;;
32319;SDS011;19080;51.750;5.888;2023-07-29T07:50:56;4.83;;;4.00;;
32319;SDS011;19080;51.750;5.888;2023-07-29T07:53:23;4.10;;;3.63;;
32319;SDS011;19080;51.750;5.888;2023-07-29T07:55:52;4.03;;;3.30;;
32319;SDS011;19080;51.750;5.888;2023-07-29T07:58:18;4.45;;;3.10;;
32319;SDS011;19080;51.750;5.888;2023-07-29T08:00:45;7.30;;;2.80;;
32319;SDS011;19080;51.750;5.888;2023-07-29T08:03:12;3.03;;;2.67;;
32319;SDS011;19080;51.750;5.888;2023-07-29T08:05:39;2.70;;;2.47;;
32319;SDS011;19080;51.750;5.888;2023-07-29T08:08:05;3.10;;;2.20;;
32319;SDS011;19080;51.750;5.888;2023-07-29T08:10:34;3.58;;;2.33;;
32319;SDS011;19080;51.750;5.888;2023-07-29T08:13:01;2.90;;;2.17;;
32319;SDS011;19080;51.750;5.888;2023-07-29T08:15:27;4.05;;;2.03;;
32319;SDS011;19080;51.750;5.888;2023-07-29T08:17:54;2.95;;;2.20;;
32319;SDS011;19080;51.750;5.888;2023-07-29T08:20:21;2.92;;;1.92;;
32319;SDS011;19080;51.750;5.888;2023-07-29T08:22:47;3.65;;;2.10;;
32319;SDS011;19080;51.750;5.888;2023-07-29T08:25:14;2.38;;;1.90;;
32319;SDS011;19080;51.750;5.888;2023-07-29T08:27:41;2.47;;;2.25;;
32319;SDS011;19080;51.750;5.888;2023-07-29T08:30:07;2.30;;;2.10;;
32319;SDS011;19080;51.750;5.888;2023-07-29T08:32:35;2.80;;;1.90;;
32319;SDS011;19080;51.750;5.888;2023-07-29T08:35:03;3.55;;;2.20;;
32319;SDS011;19080;51.750;5.888;2023-07-29T08:37:30;4.45;;;2.30;;
32319;SDS011;19080;51.750;5.888;2023-07-29T08:39:57;3.72;;;1.95;;
32319;SDS011;19080;51.750;5.888;2023-07-29T08:42:25;3.50;;;2.20;;
32319;SDS011;19080;51.750;5.888;2023-07-29T08:44:55;2.00;;;1.80;;
32319;SDS011;19080;51.750;5.888;2023-07-29T08:47:22;1.90;;;1.63;;
32319;SDS011;19080;51.750;5.888;2023-07-29T08:49:50;2.30;;;2.00;;
32319;SDS011;19080;51.750;5.888;2023-07-29T08:52:19;3.38;;;2.00;;
32319;SDS011;19080;51.750;5.888;2023-07-29T08:54:46;3.53;;;2.15;;
32319;SDS011;19080;51.750;5.888;2023-07-29T08:57:14;3.05;;;1.83;;
32319;SDS011;19080;51.750;5.888;2023-07-29T08:59:41;3.00;;;2.20;;
32319;SDS011;19080;51.750;5.888;2023-07-29T09:02:08;3.05;;;2.05;;
32319;SDS011;19080;51.750;5.888;2023-07-29T09:04:35;4.47;;;2.20;;
32319;SDS011;19080;51.750;5.888;2023-07-29T09:07:02;3.17;;;2.00;;
32319;SDS011;19080;51.750;5.888;2023-07-29T09:09:29;2.92;;;2.30;;
32319;SDS011;19080;51.750;5.888;2023-07-29T09:11:56;4.28;;;2.05;;
32319;SDS011;19080;51.750;5.888;2023-07-29T09:14:23;2.72;;;2.20;;
32319;SDS011;19080;51.750;5.888;2023-07-29T09:16:50;2.22;;;1.60;;
32319;SDS011;19080;51.750;5.888;2023-07-29T09:19:17;3.83;;;2.15;;
32319;SDS011;19080;51.750;5.888;2023-07-29T09:21:45;2.85;;;1.70;;
32319;SDS011;19080;51.750;5.888;2023-07-29T09:24:15;5.10;;;2.55;;
32319;SDS011;19080;51.750;5.888;2023-07-29T09:26:50;3.30;;;2.08;;
32319;SDS011;19080;51.750;5.888;2023-07-29T09:29:23;1.83;;;1.67;;
32319;SDS011;19080;51.750;5.888;2023-07-29T09:31:50;2.92;;;1.90;;
32319;SDS011;19080;51.750;5.888;2023-07-29T09:34:17;2.55;;;1.50;;
32319;SDS011;19080;51.750;5.888;2023-07-29T09:36:44;4.07;;;1.52;;
32319;SDS011;19080;51.750;5.888;2023-07-29T09:39:11;2.97;;;1.70;;
32319;SDS011;19080;51.750;5.888;2023-07-29T09:41:39;1.75;;;1.33;;
32319;SDS011;19080;51.750;5.888;2023-07-29T09:44:06;1.70;;;1.25;;
32319;SDS011;19080;51.750;5.888;2023-07-29T09:46:34;1.35;;;1.25;;
32319;SDS011;19080;51.750;5.888;2023-07-29T09:49:03;3.00;;;1.60;;
32319;SDS011;19080;51.750;5.888;2023-07-29T09:51:32;1.75;;;1.40;;
32319;SDS011;19080;51.750;5.888;2023-07-29T09:56:30;2.55;;;1.50;;
32319;SDS011;19080;51.750;5.888;2023-07-29T09:58:57;2.67;;;1.30;;
32319;SDS011;19080;51.750;5.888;2023-07-29T10:01:24;1.55;;;1.27;;
32319;SDS011;19080;51.750;5.888;2023-07-29T10:03:51;3.60;;;1.30;;
32319;SDS011;19080;51.750;5.888;2023-07-29T10:06:18;2.08;;;1.10;;
32319;SDS011;19080;51.750;5.888;2023-07-29T10:08:46;1.05;;;0.88;;
32319;SDS011;19080;51.750;5.888;2023-07-29T10:11:14;2.97;;;1.08;;
32319;SDS011;19080;51.750;5.888;2023-07-29T10:13:40;3.13;;;1.30;;
32319;SDS011;19080;51.750;5.888;2023-07-29T10:16:11;2.38;;;1.33;;
32319;SDS011;19080;51.750;5.888;2023-07-29T10:18:38;1.15;;;1.00;;
32319;SDS011;19080;51.750;5.888;2023-07-29T10:21:06;7.22;;;1.30;;
32319;SDS011;19080;51.750;5.888;2023-07-29T10:23:37;2.08;;;1.33;;
32319;SDS011;19080;51.750;5.888;2023-07-29T10:26:10;1.70;;;0.98;;
32319;SDS011;19080;51.750;5.888;2023-07-29T10:28:39;2.10;;;1.42;;
32319;SDS011;19080;51.750;5.888;2023-07-29T10:31:08;1.50;;;1.17;;
32319;SDS011;19080;51.750;5.888;2023-07-29T10:33:35;1.10;;;1.00;;
32319;SDS011;19080;51.750;5.888;2023-07-29T10:36:03;1.25;;;1.10;;
32319;SDS011;19080;51.750;5.888;2023-07-29T10:38:31;1.40;;;1.10;;
32319;SDS011;19080;51.750;5.888;2023-07-29T10:40:59;1.88;;;1.17;;
32319;SDS011;19080;51.750;5.888;2023-07-29T10:43:29;2.65;;;1.00;;
32319;SDS011;19080;51.750;5.888;2023-07-29T10:46:15;1.67;;;1.00;;
32319;SDS011;19080;51.750;5.888;2023-07-29T10:53:57;1.90;;;1.17;;
32319;SDS011;19080;51.750;5.888;2023-07-29T10:56:29;1.75;;;1.17;;
32319;SDS011;19080;51.750;5.888;2023-07-29T11:02:11;1.27;;;0.80;;
32319;SDS011;19080;51.750;5.888;2023-07-29T11:04:50;1.23;;;1.00;;
32319;SDS011;19080;51.750;5.888;2023-07-29T11:07:18;3.40;;;1.40;;
32319;SDS011;19080;51.750;5.888;2023-07-29T11:17:46;1.23;;;1.10;;
32319;SDS011;19080;51.750;5.888;2023-07-29T11:20:18;2.55;;;1.30;;
32319;SDS011;19080;51.750;5.888;2023-07-29T11:22:48;2.50;;;1.25;;
32319;SDS011;19080;51.750;5.888;2023-07-29T11:25:16;1.58;;;1.20;;
32319;SDS011;19080;51.750;5.888;2023-07-29T11:27:43;1.40;;;1.17;;
32319;SDS011;19080;51.750;5.888;2023-07-29T11:30:12;4.50;;;1.45;;
32319;SDS011;19080;51.750;5.888;2023-07-29T11:32:41;2.00;;;1.30;;
32319;SDS011;19080;51.750;5.888;2023-07-29T11:35:11;3.67;;;1.63;;
32319;SDS011;19080;51.750;5.888;2023-07-29T11:37:41;1.60;;;1.50;;
32319;SDS011;19080;51.750;5.888;2023-07-29T11:40:13;1.88;;;1.23;;
32319;SDS011;19080;51.750;5.888;2023-07-29T11:42:41;1.45;;;1.33;;
32319;SDS011;19080;51.750;5.888;2023-07-29T11:45:08;3.30;;;1.45;;
32319;SDS011;19080;51.750;5.888;2023-07-29T11:47:36;1.90;;;1.17;;
32319;SDS011;19080;51.750;5.888;2023-07-29T11:50:07;1.65;;;1.45;;
32319;SDS011;19080;51.750;5.888;2023-07-29T11:52:40;1.20;;;1.10;;
32319;SDS011;19080;51.750;5.888;2023-07-29T11:55:11;1.52;;;1.33;;
32319;SDS011;19080;51.750;5.888;2023-07-29T11:57:39;1.38;;;1.20;;
32319;SDS011;19080;51.750;5.888;2023-07-29T12:00:07;1.90;;;1.35;;
32319;SDS011;19080;51.750;5.888;2023-07-29T12:02:38;3.67;;;1.60;;
32319;SDS011;19080;51.750;5.888;2023-07-29T12:05:06;9.07;;;1.48;;
32319;SDS011;19080;51.750;5.888;2023-07-29T12:07:35;2.45;;;1.15;;
32319;SDS011;19080;51.750;5.888;2023-07-29T12:10:06;2.58;;;0.70;;
32319;SDS011;19080;51.750;5.888;2023-07-29T12:12:37;3.00;;;0.70;;
32319;SDS011;19080;51.750;5.888;2023-07-29T12:15:10;5.10;;;0.82;;
32319;SDS011;19080;51.750;5.888;2023-07-29T12:17:40;2.55;;;0.88;;
32319;SDS011;19080;51.750;5.888;2023-07-29T12:20:09;2.37;;;0.70;;
32319;SDS011;19080;51.750;5.888;2023-07-29T12:22:37;2.08;;;0.63;;
32319;SDS011;19080;51.750;5.888;2023-07-29T12:25:04;4.82;;;0.90;;
32319;SDS011;19080;51.750;5.888;2023-07-29T12:27:31;2.83;;;0.90;;
32319;SDS011;19080;51.750;5.888;2023-07-29T12:29:58;0.73;;;0.55;;
32319;SDS011;19080;51.750;5.888;2023-07-29T12:32:30;3.25;;;1.17;;
32319;SDS011;19080;51.750;5.888;2023-07-29T12:34:57;3.80;;;0.70;;
32319;SDS011;19080;51.750;5.888;2023-07-29T12:37:33;2.53;;;0.70;;
32319;SDS011;19080;51.750;5.888;2023-07-29T12:40:01;1.33;;;0.70;;
32319;SDS011;19080;51.750;5.888;2023-07-29T12:42:28;1.50;;;0.95;;
32319;SDS011;19080;51.750;5.888;2023-07-29T12:44:55;1.38;;;0.88;;
32319;SDS011;19080;51.750;5.888;2023-07-29T12:47:21;2.28;;;1.05;;
32319;SDS011;19080;51.750;5.888;2023-07-29T12:49:48;1.65;;;0.90;;
32319;SDS011;19080;51.750;5.888;2023-07-29T12:52:15;1.23;;;0.80;;
32319;SDS011;19080;51.750;5.888;2023-07-29T12:54:41;1.77;;;1.00;;
32319;SDS011;19080;51.750;5.888;2023-07-29T12:57:10;1.48;;;1.27;;
32319;SDS011;19080;51.750;5.888;2023-07-29T12:59:37;1.38;;;0.90;;
32319;SDS011;19080;51.750;5.888;2023-07-29T13:02:04;5.80;;;1.98;;
32319;SDS011;19080;51.750;5.888;2023-07-29T13:04:33;1.02;;;0.90;;
32319;SDS011;19080;51.750;5.888;2023-07-29T13:07:00;2.97;;;0.90;;
32319;SDS011;19080;51.750;5.888;2023-07-29T13:09:27;2.45;;;1.30;;
32319;SDS011;19080;51.750;5.888;2023-07-29T13:11:54;6.40;;;1.58;;
32319;SDS011;19080;51.750;5.888;2023-07-29T13:14:21;2.90;;;1.70;;
32319;SDS011;19080;51.750;5.888;2023-07-29T13:16:47;3.72;;;1.60;;
32319;SDS011;19080;51.750;5.888;2023-07-29T13:19:14;3.45;;;1.60;;
32319;SDS011;19080;51.750;5.888;2023-07-29T13:21:41;3.25;;;1.52;;
32319;SDS011;19080;51.750;5.888;2023-07-29T13:24:07;3.92;;;1.70;;
32319;SDS011;19080;51.750;5.888;2023-07-29T13:26:34;4.28;;;1.77;;
32319;SDS011;19080;51.750;5.888;2023-07-29T13:29:04;1.95;;;1.60;;
32319;SDS011;19080;51.750;5.888;2023-07-29T13:31:35;2.60;;;1.55;;
32319;SDS011;19080;51.750;5.888;2023-07-29T13:34:01;2.50;;;1.52;;
32319;SDS011;19080;51.750;5.888;2023-07-29T13:36:28;2.40;;;1.40;;
32319;SDS011;19080;51.750;5.888;2023-07-29T13:38:55;1.60;;;1.35;;
32319;SDS011;19080;51.750;5.888;2023-07-29T13:41:21;3.25;;;1.70;;
32319;SDS011;19080;51.750;5.888;2023-07-29T13:43:48;1.85;;;1.50;;
32319;SDS011;19080;51.750;5.888;2023-07-29T13:46:15;2.10;;;1.33;;
32319;SDS011;19080;51.750;5.888;2023-07-29T13:48:41;3.35;;;1.50;;
32319;SDS011;19080;51.750;5.888;2023-07-29T13:51:08;3.08;;;1.50;;
32319;SDS011;19080;51.750;5.888;2023-07-29T13:53:35;1.80;;;1.50;;
32319;SDS011;19080;51.750;5.888;2023-07-29T13:56:03;2.17;;;1.17;;
32319;SDS011;19080;51.750;5.888;2023-07-29T13:58:30;1.95;;;1.23;;
32319;SDS011;19080;51.750;5.888;2023-07-29T14:00:57;3.45;;;1.77;;
32319;SDS011;19080;51.750;5.888;2023-07-29T14:03:25;1.20;;;0.98;;
32319;SDS011;19080;51.750;5.888;2023-07-29T14:05:52;1.33;;;1.20;;
32319;SDS011;19080;51.750;5.888;2023-07-29T14:08:19;1.67;;;1.23;;
32319;SDS011;19080;51.750;5.888;2023-07-29T14:10:45;1.38;;;1.27;;
32319;SDS011;19080;51.750;5.888;2023-07-29T14:13:12;1.70;;;1.38;;
32319;SDS011;19080;51.750;5.888;2023-07-29T14:15:40;3.03;;;1.30;;
32319;SDS011;19080;51.750;5.888;2023-07-29T14:18:06;1.88;;;1.27;;
32319;SDS011;19080;51.750;5.888;2023-07-29T14:20:33;1.35;;;0.98;;
32319;SDS011;19080;51.750;5.888;2023-07-29T14:23:00;1.30;;;1.20;;
32319;SDS011;19080;51.750;5.888;2023-07-29T14:25:28;1.25;;;1.15;;
32319;SDS011;19080;51.750;5.888;2023-07-29T14:27:56;2.92;;;1.50;;
32319;SDS011;19080;51.750;5.888;2023-07-29T14:30:23;2.03;;;1.50;;
32319;SDS011;19080;51.750;5.888;2023-07-29T14:32:50;1.88;;;1.20;;
32319;SDS011;19080;51.750;5.888;2023-07-29T14:35:17;1.55;;;1.10;;
32319;SDS011;19080;51.750;5.888;2023-07-29T14:37:44;2.17;;;1.02;;
32319;SDS011;19080;51.750;5.888;2023-07-29T14:40:10;1.80;;;1.05;;
32319;SDS011;19080;51.750;5.888;2023-07-29T14:42:37;1.85;;;1.10;;
32319;SDS011;19080;51.750;5.888;2023-07-29T14:45:04;1.10;;;0.95;;
32319;SDS011;19080;51.750;5.888;2023-07-29T14:47:32;2.05;;;0.80;;
32319;SDS011;19080;51.750;5.888;2023-07-29T14:50:01;2.95;;;1.00;;
32319;SDS011;19080;51.750;5.888;2023-07-29T14:52:28;1.23;;;1.13;;
32319;SDS011;19080;51.750;5.888;2023-07-29T14:54:55;1.60;;;1.20;;
32319;SDS011;19080;51.750;5.888;2023-07-29T14:57:22;3.55;;;1.23;;
32319;SDS011;19080;51.750;5.888;2023-07-29T14:59:48;1.42;;;1.33;;
32319;SDS011;19080;51.750;5.888;2023-07-29T15:02:15;1.45;;;1.30;;
32319;SDS011;19080;51.750;5.888;2023-07-29T15:04:42;2.47;;;1.58;;
32319;SDS011;19080;51.750;5.888;2023-07-29T15:07:08;2.25;;;1.52;;
32319;SDS011;19080;51.750;5.888;2023-07-29T15:09:35;2.38;;;1.40;;
32319;SDS011;19080;51.750;5.888;2023-07-29T15:12:02;2.58;;;1.67;;
32319;SDS011;19080;51.750;5.888;2023-07-29T15:14:31;1.42;;;1.33;;